sensor_id;sensor_type;location;lat;lon;timestamp;P1;durP1;ratioP1;P2;durP2;ratioP2
75542;SDS011;64129;53.508;10.476;2023-02-13T00:00:37;29.17;;;13.90;;
75542;SDS011;64129;53.508;10.476;2023-02-13T00:03:04;25.65;;;13.52;;
75542;SDS011;64129;53.508;10.476;2023-02-13T00:05:30;27.17;;;15.07;;
75542;SDS011;64129;53.508;10.476;2023-02-13T00:07:57;27.90;;;15.27;;
75542;SDS011;64129;53.508;10.476;2023-02-13T00:10:23;27.77;;;14.52;;
75542;SDS011;64129;53.508;10.476;2023-02-13T00:12:50;31.70;;;16.00;;
75542;SDS011;64129;53.508;10.476;2023-02-13T00:15:16;32.67;;;14.63;;
75542;SDS011;64129;53.508;10.476;2023-02-13T00:17:43;26.75;;;14.90;;
75542;SDS011;64129;53.508;10.476;2023-02-13T00:20:10;28.70;;;14.43;;
75542;SDS011;64129;53.508;10.476;2023-02-13T00:22:37;27.33;;;15.43;;
75542;SDS011;64129;53.508;10.476;2023-02-13T00:25:04;24.67;;;13.98;;
75542;SDS011;64129;53.508;10.476;2023-02-13T00:27:32;25.50;;;13.57;;
75542;SDS011;64129;53.508;10.476;2023-02-13T00:30:00;29.75;;;13.90;;
75542;SDS011;64129;53.508;10.476;2023-02-13T00:32:26;27.15;;;14.20;;
75542;SDS011;64129;53.508;10.476;2023-02-13T00:34:53;32.88;;;14.45;;
75542;SDS011;64129;53.508;10.476;2023-02-13T00:37:21;27.20;;;14.35;;
75542;SDS011;64129;53.508;10.476;2023-02-13T00:39:50;25.67;;;13.30;;
75542;SDS011;64129;53.508;10.476;2023-02-13T00:42:17;28.30;;;14.73;;
75542;SDS011;64129;53.508;10.476;2023-02-13T00:44:43;28.95;;;13.68;;
75542;SDS011;64129;53.508;10.476;2023-02-13T00:47:10;27.17;;;12.82;;
75542;SDS011;64129;53.508;10.476;2023-02-13T00:49:39;26.23;;;14.00;;
75542;SDS011;64129;53.508;10.476;2023-02-13T00:52:06;26.98;;;14.35;;
75542;SDS011;64129;53.508;10.476;2023-02-13T00:54:33;28.45;;;13.65;;
75542;SDS011;64129;53.508;10.476;2023-02-13T00:56:59;26.63;;;13.93;;
75542;SDS011;64129;53.508;10.476;2023-02-13T00:59:26;26.45;;;13.48;;
75542;SDS011;64129;53.508;10.476;2023-02-13T01:01:52;27.38;;;13.70;;
75542;SDS011;64129;53.508;10.476;2023-02-13T01:04:19;30.50;;;13.77;;
75542;SDS011;64129;53.508;10.476;2023-02-13T01:06:45;26.77;;;14.38;;
75542;SDS011;64129;53.508;10.476;2023-02-13T01:09:12;25.48;;;13.40;;
75542;SDS011;64129;53.508;10.476;2023-02-13T01:11:38;29.10;;;14.60;;
75542;SDS011;64129;53.508;10.476;2023-02-13T01:14:04;26.65;;;14.68;;
75542;SDS011;64129;53.508;10.476;2023-02-13T01:16:31;24.73;;;12.70;;
75542;SDS011;64129;53.508;10.476;2023-02-13T01:18:58;27.88;;;13.60;;
75542;SDS011;64129;53.508;10.476;2023-02-13T01:21:24;28.55;;;14.35;;
75542;SDS011;64129;53.508;10.476;2023-02-13T01:23:51;25.08;;;14.13;;
75542;SDS011;64129;53.508;10.476;2023-02-13T01:26:19;26.45;;;13.90;;
75542;SDS011;64129;53.508;10.476;2023-02-13T01:28:52;28.27;;;13.85;;
75542;SDS011;64129;53.508;10.476;2023-02-13T01:31:20;27.35;;;13.82;;
75542;SDS011;64129;53.508;10.476;2023-02-13T01:33:48;24.55;;;13.63;;
75542;SDS011;64129;53.508;10.476;2023-02-13T01:36:15;26.95;;;13.43;;
75542;SDS011;64129;53.508;10.476;2023-02-13T01:38:41;32.22;;;15.23;;
75542;SDS011;64129;53.508;10.476;2023-02-13T01:41:08;28.98;;;14.52;;
75542;SDS011;64129;53.508;10.476;2023-02-13T01:43:45;30.02;;;13.80;;
75542;SDS011;64129;53.508;10.476;2023-02-13T01:46:13;27.30;;;13.93;;
75542;SDS011;64129;53.508;10.476;2023-02-13T01:48:43;26.05;;;13.48;;
75542;SDS011;64129;53.508;10.476;2023-02-13T01:51:12;29.40;;;14.52;;
75542;SDS011;64129;53.508;10.476;2023-02-13T01:53:45;30.48;;;14.90;;
75542;SDS011;64129;53.508;10.476;2023-02-13T01:58:58;29.02;;;14.93;;
75542;SDS011;64129;53.508;10.476;2023-02-13T02:01:28;33.33;;;15.95;;
75542;SDS011;64129;53.508;10.476;2023-02-13T02:03:58;30.85;;;14.98;;
75542;SDS011;64129;53.508;10.476;2023-02-13T02:06:36;32.92;;;14.52;;
75542;SDS011;64129;53.508;10.476;2023-02-13T02:09:23;34.30;;;15.20;;
75542;SDS011;64129;53.508;10.476;2023-02-13T02:14:35;34.28;;;16.08;;
75542;SDS011;64129;53.508;10.476;2023-02-13T02:17:05;33.75;;;16.33;;
75542;SDS011;64129;53.508;10.476;2023-02-13T02:19:35;30.17;;;14.77;;
75542;SDS011;64129;53.508;10.476;2023-02-13T02:22:22;33.53;;;16.15;;
75542;SDS011;64129;53.508;10.476;2023-02-13T02:25:01;34.20;;;16.52;;
75542;SDS011;64129;53.508;10.476;2023-02-13T02:33:28;29.77;;;14.52;;
75542;SDS011;64129;53.508;10.476;2023-02-13T02:41:42;30.40;;;14.10;;
75542;SDS011;64129;53.508;10.476;2023-02-13T02:44:39;32.63;;;15.35;;
75542;SDS011;64129;53.508;10.476;2023-02-13T02:47:17;34.75;;;14.80;;
75542;SDS011;64129;53.508;10.476;2023-02-13T02:50:32;28.42;;;14.77;;
75542;SDS011;64129;53.508;10.476;2023-02-13T02:55:41;30.52;;;15.30;;
75542;SDS011;64129;53.508;10.476;2023-02-13T02:58:21;34.95;;;15.63;;
75542;SDS011;64129;53.508;10.476;2023-02-13T03:01:13;32.47;;;14.23;;
75542;SDS011;64129;53.508;10.476;2023-02-13T03:04:02;36.33;;;16.13;;
75542;SDS011;64129;53.508;10.476;2023-02-13T03:06:52;35.85;;;14.90;;
75542;SDS011;64129;53.508;10.476;2023-02-13T03:09:24;34.88;;;16.15;;
75542;SDS011;64129;53.508;10.476;2023-02-13T03:12:14;32.47;;;15.20;;
75542;SDS011;64129;53.508;10.476;2023-02-13T03:15:03;32.50;;;15.70;;
75542;SDS011;64129;53.508;10.476;2023-02-13T03:17:30;33.80;;;16.05;;
75542;SDS011;64129;53.508;10.476;2023-02-13T03:20:26;37.78;;;15.38;;
75542;SDS011;64129;53.508;10.476;2023-02-13T03:36:01;34.55;;;15.13;;
75542;SDS011;64129;53.508;10.476;2023-02-13T03:38:56;30.60;;;14.52;;
75542;SDS011;64129;53.508;10.476;2023-02-13T03:41:41;33.08;;;14.48;;
75542;SDS011;64129;53.508;10.476;2023-02-13T03:46:52;32.95;;;15.05;;
75542;SDS011;64129;53.508;10.476;2023-02-13T03:49:23;32.30;;;15.65;;
75542;SDS011;64129;53.508;10.476;2023-02-13T03:54:51;33.22;;;14.20;;
75542;SDS011;64129;53.508;10.476;2023-02-13T03:57:42;31.98;;;15.85;;
75542;SDS011;64129;53.508;10.476;2023-02-13T04:00:32;34.22;;;14.35;;
75542;SDS011;64129;53.508;10.476;2023-02-13T04:03:09;30.95;;;14.80;;
75542;SDS011;64129;53.508;10.476;2023-02-13T04:05:42;32.13;;;15.32;;
75542;SDS011;64129;53.508;10.476;2023-02-13T04:08:13;28.85;;;15.02;;
75542;SDS011;64129;53.508;10.476;2023-02-13T04:10:50;35.00;;;15.60;;
75542;SDS011;64129;53.508;10.476;2023-02-13T04:13:24;30.05;;;14.30;;
75542;SDS011;64129;53.508;10.476;2023-02-13T04:16:02;32.80;;;15.88;;
75542;SDS011;64129;53.508;10.476;2023-02-13T04:18:35;31.90;;;15.00;;
75542;SDS011;64129;53.508;10.476;2023-02-13T04:21:04;27.80;;;14.27;;
75542;SDS011;64129;53.508;10.476;2023-02-13T04:23:32;29.98;;;13.98;;
75542;SDS011;64129;53.508;10.476;2023-02-13T04:26:05;27.48;;;14.73;;
75542;SDS011;64129;53.508;10.476;2023-02-13T04:28:39;26.15;;;14.60;;
75542;SDS011;64129;53.508;10.476;2023-02-13T04:31:06;24.05;;;13.55;;
75542;SDS011;64129;53.508;10.476;2023-02-13T04:33:32;27.77;;;13.68;;
75542;SDS011;64129;53.508;10.476;2023-02-13T04:35:59;26.83;;;12.55;;
75542;SDS011;64129;53.508;10.476;2023-02-13T04:38:25;26.42;;;12.80;;
75542;SDS011;64129;53.508;10.476;2023-02-13T04:40:51;27.27;;;14.25;;
75542;SDS011;64129;53.508;10.476;2023-02-13T04:43:18;26.30;;;14.90;;
75542;SDS011;64129;53.508;10.476;2023-02-13T04:45:48;28.30;;;14.48;;
75542;SDS011;64129;53.508;10.476;2023-02-13T04:48:15;27.40;;;14.13;;
75542;SDS011;64129;53.508;10.476;2023-02-13T04:50:41;26.95;;;13.10;;
75542;SDS011;64129;53.508;10.476;2023-02-13T04:53:07;26.40;;;13.05;;
75542;SDS011;64129;53.508;10.476;2023-02-13T04:55:34;22.73;;;12.48;;
75542;SDS011;64129;53.508;10.476;2023-02-13T04:58:01;27.30;;;13.98;;
75542;SDS011;64129;53.508;10.476;2023-02-13T05:00:28;31.08;;;13.93;;
75542;SDS011;64129;53.508;10.476;2023-02-13T05:02:59;25.45;;;12.68;;
75542;SDS011;64129;53.508;10.476;2023-02-13T05:05:29;26.40;;;13.50;;
75542;SDS011;64129;53.508;10.476;2023-02-13T05:07:55;25.13;;;13.52;;
75542;SDS011;64129;53.508;10.476;2023-02-13T05:10:22;26.73;;;13.75;;
75542;SDS011;64129;53.508;10.476;2023-02-13T05:12:48;25.27;;;12.70;;
75542;SDS011;64129;53.508;10.476;2023-02-13T05:15:15;26.73;;;13.13;;
75542;SDS011;64129;53.508;10.476;2023-02-13T05:17:45;22.17;;;13.05;;
75542;SDS011;64129;53.508;10.476;2023-02-13T05:20:12;25.20;;;12.65;;
75542;SDS011;64129;53.508;10.476;2023-02-13T05:22:43;22.83;;;12.73;;
75542;SDS011;64129;53.508;10.476;2023-02-13T05:25:32;27.80;;;13.27;;
75542;SDS011;64129;53.508;10.476;2023-02-13T05:27:59;22.27;;;12.48;;
75542;SDS011;64129;53.508;10.476;2023-02-13T05:30:26;23.92;;;12.98;;
75542;SDS011;64129;53.508;10.476;2023-02-13T05:32:53;24.55;;;13.15;;
75542;SDS011;64129;53.508;10.476;2023-02-13T05:35:20;27.30;;;13.88;;
75542;SDS011;64129;53.508;10.476;2023-02-13T05:37:47;27.20;;;14.05;;
75542;SDS011;64129;53.508;10.476;2023-02-13T05:40:14;24.98;;;12.98;;
75542;SDS011;64129;53.508;10.476;2023-02-13T05:42:41;27.08;;;13.90;;
75542;SDS011;64129;53.508;10.476;2023-02-13T05:45:08;25.83;;;13.57;;
75542;SDS011;64129;53.508;10.476;2023-02-13T05:47:35;26.17;;;13.85;;
75542;SDS011;64129;53.508;10.476;2023-02-13T05:50:02;23.83;;;12.90;;
75542;SDS011;64129;53.508;10.476;2023-02-13T05:52:28;24.27;;;12.63;;
75542;SDS011;64129;53.508;10.476;2023-02-13T05:54:55;25.00;;;14.13;;
75542;SDS011;64129;53.508;10.476;2023-02-13T05:57:21;24.42;;;13.65;;
75542;SDS011;64129;53.508;10.476;2023-02-13T05:59:47;28.45;;;13.35;;
75542;SDS011;64129;53.508;10.476;2023-02-13T06:02:14;28.38;;;13.55;;
75542;SDS011;64129;53.508;10.476;2023-02-13T06:04:40;28.17;;;14.25;;
75542;SDS011;64129;53.508;10.476;2023-02-13T06:07:07;28.20;;;13.38;;
75542;SDS011;64129;53.508;10.476;2023-02-13T06:09:33;27.10;;;13.43;;
75542;SDS011;64129;53.508;10.476;2023-02-13T06:12:00;22.63;;;12.43;;
75542;SDS011;64129;53.508;10.476;2023-02-13T06:14:26;21.73;;;12.68;;
75542;SDS011;64129;53.508;10.476;2023-02-13T06:16:53;27.35;;;15.13;;
75542;SDS011;64129;53.508;10.476;2023-02-13T06:19:19;24.98;;;12.75;;
75542;SDS011;64129;53.508;10.476;2023-02-13T06:21:46;22.25;;;11.43;;
75542;SDS011;64129;53.508;10.476;2023-02-13T06:24:12;22.23;;;11.55;;
75542;SDS011;64129;53.508;10.476;2023-02-13T06:26:39;22.80;;;11.88;;
75542;SDS011;64129;53.508;10.476;2023-02-13T06:29:05;21.10;;;11.00;;
75542;SDS011;64129;53.508;10.476;2023-02-13T06:31:32;21.88;;;11.43;;
75542;SDS011;64129;53.508;10.476;2023-02-13T06:33:58;23.38;;;11.95;;
75542;SDS011;64129;53.508;10.476;2023-02-13T06:36:25;19.67;;;10.70;;
75542;SDS011;64129;53.508;10.476;2023-02-13T06:38:51;24.77;;;10.95;;
75542;SDS011;64129;53.508;10.476;2023-02-13T06:41:18;20.30;;;10.35;;
75542;SDS011;64129;53.508;10.476;2023-02-13T06:43:44;20.15;;;10.45;;
75542;SDS011;64129;53.508;10.476;2023-02-13T06:46:11;19.65;;;10.65;;
75542;SDS011;64129;53.508;10.476;2023-02-13T06:48:37;22.63;;;11.43;;
75542;SDS011;64129;53.508;10.476;2023-02-13T06:51:04;19.65;;;10.43;;
75542;SDS011;64129;53.508;10.476;2023-02-13T06:53:30;19.52;;;11.15;;
75542;SDS011;64129;53.508;10.476;2023-02-13T06:55:57;20.98;;;10.82;;
75542;SDS011;64129;53.508;10.476;2023-02-13T06:58:24;23.35;;;10.57;;
75542;SDS011;64129;53.508;10.476;2023-02-13T07:00:51;21.33;;;10.88;;
75542;SDS011;64129;53.508;10.476;2023-02-13T07:03:18;20.58;;;10.68;;
75542;SDS011;64129;53.508;10.476;2023-02-13T07:05:44;20.70;;;10.85;;
75542;SDS011;64129;53.508;10.476;2023-02-13T07:08:11;20.45;;;10.55;;
75542;SDS011;64129;53.508;10.476;2023-02-13T07:10:41;19.05;;;10.90;;
75542;SDS011;64129;53.508;10.476;2023-02-13T07:13:08;23.05;;;11.30;;
75542;SDS011;64129;53.508;10.476;2023-02-13T07:15:35;19.50;;;10.73;;
75542;SDS011;64129;53.508;10.476;2023-02-13T07:18:03;22.35;;;11.45;;
75542;SDS011;64129;53.508;10.476;2023-02-13T07:20:29;22.15;;;11.40;;
75542;SDS011;64129;53.508;10.476;2023-02-13T07:22:57;20.85;;;11.07;;
75542;SDS011;64129;53.508;10.476;2023-02-13T07:25:25;25.35;;;11.10;;
75542;SDS011;64129;53.508;10.476;2023-02-13T07:27:52;22.20;;;12.30;;
75542;SDS011;64129;53.508;10.476;2023-02-13T07:30:19;22.42;;;11.80;;
75542;SDS011;64129;53.508;10.476;2023-02-13T07:32:45;21.80;;;12.05;;
75542;SDS011;64129;53.508;10.476;2023-02-13T07:35:12;20.67;;;10.65;;
75542;SDS011;64129;53.508;10.476;2023-02-13T07:37:38;21.20;;;11.05;;
75542;SDS011;64129;53.508;10.476;2023-02-13T07:40:05;23.55;;;11.85;;
75542;SDS011;64129;53.508;10.476;2023-02-13T07:42:32;24.88;;;12.50;;
75542;SDS011;64129;53.508;10.476;2023-02-13T07:44:59;26.23;;;12.10;;
75542;SDS011;64129;53.508;10.476;2023-02-13T07:47:26;21.90;;;11.10;;
75542;SDS011;64129;53.508;10.476;2023-02-13T07:49:53;25.67;;;11.77;;
75542;SDS011;64129;53.508;10.476;2023-02-13T07:52:20;23.52;;;11.52;;
75542;SDS011;64129;53.508;10.476;2023-02-13T07:54:46;20.27;;;10.82;;
75542;SDS011;64129;53.508;10.476;2023-02-13T07:57:13;21.00;;;11.25;;
75542;SDS011;64129;53.508;10.476;2023-02-13T07:59:41;23.73;;;11.82;;
75542;SDS011;64129;53.508;10.476;2023-02-13T08:02:11;24.45;;;12.43;;
75542;SDS011;64129;53.508;10.476;2023-02-13T08:04:39;21.52;;;12.05;;
75542;SDS011;64129;53.508;10.476;2023-02-13T08:07:06;23.33;;;11.27;;
75542;SDS011;64129;53.508;10.476;2023-02-13T08:09:32;21.33;;;11.77;;
75542;SDS011;64129;53.508;10.476;2023-02-13T08:12:18;20.95;;;11.05;;
75542;SDS011;64129;53.508;10.476;2023-02-13T08:14:44;21.90;;;11.90;;
75542;SDS011;64129;53.508;10.476;2023-02-13T08:17:11;22.35;;;11.60;;
75542;SDS011;64129;53.508;10.476;2023-02-13T08:19:37;22.83;;;11.80;;
75542;SDS011;64129;53.508;10.476;2023-02-13T08:22:04;22.85;;;12.57;;
75542;SDS011;64129;53.508;10.476;2023-02-13T08:24:31;20.60;;;11.98;;
75542;SDS011;64129;53.508;10.476;2023-02-13T08:26:58;24.42;;;12.00;;
75542;SDS011;64129;53.508;10.476;2023-02-13T08:29:24;24.63;;;13.35;;
75542;SDS011;64129;53.508;10.476;2023-02-13T08:31:50;25.00;;;13.25;;
75542;SDS011;64129;53.508;10.476;2023-02-13T08:34:17;21.88;;;12.70;;
75542;SDS011;64129;53.508;10.476;2023-02-13T08:36:43;24.05;;;12.20;;
75542;SDS011;64129;53.508;10.476;2023-02-13T08:39:10;20.55;;;12.27;;
75542;SDS011;64129;53.508;10.476;2023-02-13T08:41:37;22.25;;;12.30;;
75542;SDS011;64129;53.508;10.476;2023-02-13T08:44:03;21.30;;;12.38;;
75542;SDS011;64129;53.508;10.476;2023-02-13T08:46:30;22.23;;;12.73;;
75542;SDS011;64129;53.508;10.476;2023-02-13T08:48:56;21.65;;;11.93;;
75542;SDS011;64129;53.508;10.476;2023-02-13T08:51:23;20.42;;;11.35;;
75542;SDS011;64129;53.508;10.476;2023-02-13T08:53:49;16.00;;;7.85;;
75542;SDS011;64129;53.508;10.476;2023-02-13T08:56:16;15.38;;;9.63;;
75542;SDS011;64129;53.508;10.476;2023-02-13T08:58:42;16.92;;;10.77;;
75542;SDS011;64129;53.508;10.476;2023-02-13T09:01:09;17.25;;;11.07;;
75542;SDS011;64129;53.508;10.476;2023-02-13T09:03:35;19.02;;;11.23;;
75542;SDS011;64129;53.508;10.476;2023-02-13T09:06:02;19.23;;;10.32;;
75542;SDS011;64129;53.508;10.476;2023-02-13T09:08:29;17.08;;;9.90;;
75542;SDS011;64129;53.508;10.476;2023-02-13T09:10:57;18.70;;;10.50;;
75542;SDS011;64129;53.508;10.476;2023-02-13T09:13:24;16.27;;;10.88;;
75542;SDS011;64129;53.508;10.476;2023-02-13T09:15:51;18.33;;;10.07;;
75542;SDS011;64129;53.508;10.476;2023-02-13T09:18:18;21.92;;;11.38;;
75542;SDS011;64129;53.508;10.476;2023-02-13T09:20:44;16.08;;;9.90;;
75542;SDS011;64129;53.508;10.476;2023-02-13T09:23:12;20.20;;;10.80;;
75542;SDS011;64129;53.508;10.476;2023-02-13T09:25:38;16.40;;;9.50;;
75542;SDS011;64129;53.508;10.476;2023-02-13T09:28:04;16.77;;;10.60;;
75542;SDS011;64129;53.508;10.476;2023-02-13T09:30:31;16.48;;;10.02;;
75542;SDS011;64129;53.508;10.476;2023-02-13T09:32:57;16.50;;;10.38;;
75542;SDS011;64129;53.508;10.476;2023-02-13T09:35:24;18.98;;;10.50;;
75542;SDS011;64129;53.508;10.476;2023-02-13T09:37:51;16.83;;;8.48;;
75542;SDS011;64129;53.508;10.476;2023-02-13T09:40:25;17.10;;;9.20;;
75542;SDS011;64129;53.508;10.476;2023-02-13T09:43:04;14.20;;;8.15;;
75542;SDS011;64129;53.508;10.476;2023-02-13T09:45:51;16.80;;;9.02;;
75542;SDS011;64129;53.508;10.476;2023-02-13T09:48:26;13.15;;;8.27;;
75542;SDS011;64129;53.508;10.476;2023-02-13T09:50:56;14.35;;;8.30;;
75542;SDS011;64129;53.508;10.476;2023-02-13T09:53:24;15.30;;;9.63;;
75542;SDS011;64129;53.508;10.476;2023-02-13T09:58:42;14.57;;;8.85;;
75542;SDS011;64129;53.508;10.476;2023-02-13T10:01:27;13.07;;;8.43;;
75542;SDS011;64129;53.508;10.476;2023-02-13T10:04:06;15.55;;;9.02;;
75542;SDS011;64129;53.508;10.476;2023-02-13T10:06:48;15.18;;;9.05;;
75542;SDS011;64129;53.508;10.476;2023-02-13T10:14:57;16.02;;;8.48;;
75542;SDS011;64129;53.508;10.476;2023-02-13T10:17:31;15.05;;;8.80;;
75542;SDS011;64129;53.508;10.476;2023-02-13T10:20:04;16.85;;;8.77;;
75542;SDS011;64129;53.508;10.476;2023-02-13T10:22:42;14.27;;;8.88;;
75542;SDS011;64129;53.508;10.476;2023-02-13T10:25:15;15.32;;;9.10;;
75542;SDS011;64129;53.508;10.476;2023-02-13T10:27:48;17.48;;;9.07;;
75542;SDS011;64129;53.508;10.476;2023-02-13T10:30:28;13.77;;;7.93;;
75542;SDS011;64129;53.508;10.476;2023-02-13T10:35:57;12.82;;;8.43;;
75542;SDS011;64129;53.508;10.476;2023-02-13T10:38:27;14.38;;;8.43;;
75542;SDS011;64129;53.508;10.476;2023-02-13T10:49:27;16.60;;;9.73;;
75542;SDS011;64129;53.508;10.476;2023-02-13T10:57:31;14.00;;;8.20;;
75542;SDS011;64129;53.508;10.476;2023-02-13T11:00:36;13.65;;;8.52;;
75542;SDS011;64129;53.508;10.476;2023-02-13T11:03:16;14.65;;;8.38;;
75542;SDS011;64129;53.508;10.476;2023-02-13T11:05:44;15.90;;;8.45;;
75542;SDS011;64129;53.508;10.476;2023-02-13T11:08:22;16.00;;;8.38;;
75542;SDS011;64129;53.508;10.476;2023-02-13T11:10:49;13.45;;;8.57;;
75542;SDS011;64129;53.508;10.476;2023-02-13T11:13:20;15.15;;;8.75;;
75542;SDS011;64129;53.508;10.476;2023-02-13T11:16:05;15.38;;;9.15;;
75542;SDS011;64129;53.508;10.476;2023-02-13T11:18:34;15.18;;;7.38;;
75542;SDS011;64129;53.508;10.476;2023-02-13T11:21:10;15.55;;;8.50;;
75542;SDS011;64129;53.508;10.476;2023-02-13T11:23:48;16.20;;;8.35;;
75542;SDS011;64129;53.508;10.476;2023-02-13T11:28:57;14.50;;;9.02;;
75542;SDS011;64129;53.508;10.476;2023-02-13T11:31:28;14.35;;;7.45;;
75542;SDS011;64129;53.508;10.476;2023-02-13T11:33:55;14.27;;;8.43;;
75542;SDS011;64129;53.508;10.476;2023-02-13T11:36:25;13.65;;;7.45;;
75542;SDS011;64129;53.508;10.476;2023-02-13T11:39:16;13.85;;;7.95;;
75542;SDS011;64129;53.508;10.476;2023-02-13T11:41:44;13.80;;;8.30;;
75542;SDS011;64129;53.508;10.476;2023-02-13T11:44:19;14.95;;;8.55;;
75542;SDS011;64129;53.508;10.476;2023-02-13T11:46:53;13.68;;;8.55;;
75542;SDS011;64129;53.508;10.476;2023-02-13T11:49:22;13.98;;;8.02;;
75542;SDS011;64129;53.508;10.476;2023-02-13T11:51:51;14.75;;;8.80;;
75542;SDS011;64129;53.508;10.476;2023-02-13T11:59:49;14.50;;;8.18;;
75542;SDS011;64129;53.508;10.476;2023-02-13T12:02:19;15.57;;;9.07;;
75542;SDS011;64129;53.508;10.476;2023-02-13T12:04:51;16.70;;;10.02;;
75542;SDS011;64129;53.508;10.476;2023-02-13T12:12:47;21.02;;;11.50;;
75542;SDS011;64129;53.508;10.476;2023-02-13T12:15:35;20.17;;;12.15;;
75542;SDS011;64129;53.508;10.476;2023-02-13T12:18:04;24.33;;;11.80;;
75542;SDS011;64129;53.508;10.476;2023-02-13T12:20:56;21.70;;;12.35;;
75542;SDS011;64129;53.508;10.476;2023-02-13T12:23:53;21.65;;;12.00;;
75542;SDS011;64129;53.508;10.476;2023-02-13T12:31:49;22.60;;;12.43;;
75542;SDS011;64129;53.508;10.476;2023-02-13T12:40:15;21.77;;;12.68;;
75542;SDS011;64129;53.508;10.476;2023-02-13T12:45:39;22.17;;;13.18;;
75542;SDS011;64129;53.508;10.476;2023-02-13T12:53:52;23.00;;;12.57;;
75542;SDS011;64129;53.508;10.476;2023-02-13T13:02:24;21.13;;;11.07;;
75542;SDS011;64129;53.508;10.476;2023-02-13T13:05:15;20.83;;;12.05;;
75542;SDS011;64129;53.508;10.476;2023-02-13T13:07:49;21.17;;;11.45;;
75542;SDS011;64129;53.508;10.476;2023-02-13T13:13:11;20.67;;;11.35;;
75542;SDS011;64129;53.508;10.476;2023-02-13T13:16:08;23.17;;;11.35;;
75542;SDS011;64129;53.508;10.476;2023-02-13T13:21:58;19.58;;;11.60;;
75542;SDS011;64129;53.508;10.476;2023-02-13T13:27:26;19.98;;;11.60;;
75542;SDS011;64129;53.508;10.476;2023-02-13T13:30:05;22.35;;;12.50;;
75542;SDS011;64129;53.508;10.476;2023-02-13T13:32:41;21.80;;;11.88;;
75542;SDS011;64129;53.508;10.476;2023-02-13T13:37:42;22.08;;;10.73;;
75542;SDS011;64129;53.508;10.476;2023-02-13T13:40:42;23.23;;;10.68;;
75542;SDS011;64129;53.508;10.476;2023-02-13T13:46:14;19.75;;;10.13;;
75542;SDS011;64129;53.508;10.476;2023-02-13T13:51:22;22.58;;;11.15;;
75542;SDS011;64129;53.508;10.476;2023-02-13T13:56:25;19.80;;;11.52;;
75542;SDS011;64129;53.508;10.476;2023-02-13T13:59:17;25.17;;;12.48;;
75542;SDS011;64129;53.508;10.476;2023-02-13T14:01:44;24.55;;;12.70;;
75542;SDS011;64129;53.508;10.476;2023-02-13T14:04:36;23.17;;;11.43;;
75542;SDS011;64129;53.508;10.476;2023-02-13T14:07:15;21.33;;;11.50;;
75542;SDS011;64129;53.508;10.476;2023-02-13T14:09:48;21.90;;;11.70;;
75542;SDS011;64129;53.508;10.476;2023-02-13T14:14:50;23.98;;;11.85;;
75542;SDS011;64129;53.508;10.476;2023-02-13T14:20:20;22.48;;;12.48;;
75542;SDS011;64129;53.508;10.476;2023-02-13T14:22:47;26.17;;;12.55;;
75542;SDS011;64129;53.508;10.476;2023-02-13T14:25:23;21.38;;;12.27;;
75542;SDS011;64129;53.508;10.476;2023-02-13T14:27:56;23.83;;;12.75;;
75542;SDS011;64129;53.508;10.476;2023-02-13T14:30:27;25.85;;;12.23;;
75542;SDS011;64129;53.508;10.476;2023-02-13T14:33:02;22.52;;;10.98;;
75542;SDS011;64129;53.508;10.476;2023-02-13T14:35:32;21.88;;;12.02;;
75542;SDS011;64129;53.508;10.476;2023-02-13T14:38:03;21.27;;;11.18;;
75542;SDS011;64129;53.508;10.476;2023-02-13T14:43:18;19.75;;;10.98;;
75542;SDS011;64129;53.508;10.476;2023-02-13T14:51:53;21.88;;;10.88;;
75542;SDS011;64129;53.508;10.476;2023-02-13T14:54:26;21.92;;;10.00;;
75542;SDS011;64129;53.508;10.476;2023-02-13T14:56:59;22.33;;;11.40;;
75542;SDS011;64129;53.508;10.476;2023-02-13T14:59:33;20.60;;;10.95;;
75542;SDS011;64129;53.508;10.476;2023-02-13T15:02:11;20.13;;;12.30;;
75542;SDS011;64129;53.508;10.476;2023-02-13T15:05:09;25.50;;;12.32;;
75542;SDS011;64129;53.508;10.476;2023-02-13T15:07:41;22.73;;;11.30;;
75542;SDS011;64129;53.508;10.476;2023-02-13T15:13:16;21.60;;;11.40;;
75542;SDS011;64129;53.508;10.476;2023-02-13T15:15:51;21.42;;;11.35;;
75542;SDS011;64129;53.508;10.476;2023-02-13T15:18:29;23.50;;;11.70;;
75542;SDS011;64129;53.508;10.476;2023-02-13T15:21:00;28.08;;;14.00;;
75542;SDS011;64129;53.508;10.476;2023-02-13T15:23:28;26.23;;;13.52;;
75542;SDS011;64129;53.508;10.476;2023-02-13T15:26:00;26.20;;;13.52;;
75542;SDS011;64129;53.508;10.476;2023-02-13T15:28:28;22.73;;;12.75;;
75542;SDS011;64129;53.508;10.476;2023-02-13T15:30:57;21.63;;;12.27;;
75542;SDS011;64129;53.508;10.476;2023-02-13T15:33:26;23.80;;;13.00;;
75542;SDS011;64129;53.508;10.476;2023-02-13T15:35:56;19.73;;;11.10;;
75542;SDS011;64129;53.508;10.476;2023-02-13T15:40:58;22.35;;;11.50;;
75542;SDS011;64129;53.508;10.476;2023-02-13T15:43:36;20.45;;;11.68;;
75542;SDS011;64129;53.508;10.476;2023-02-13T15:46:07;23.65;;;12.48;;
75542;SDS011;64129;53.508;10.476;2023-02-13T15:48:44;22.00;;;11.93;;
75542;SDS011;64129;53.508;10.476;2023-02-13T15:51:18;21.23;;;11.57;;
75542;SDS011;64129;53.508;10.476;2023-02-13T15:56:21;23.67;;;11.77;;
75542;SDS011;64129;53.508;10.476;2023-02-13T15:58:48;22.25;;;11.52;;
75542;SDS011;64129;53.508;10.476;2023-02-13T16:01:16;22.83;;;12.65;;
75542;SDS011;64129;53.508;10.476;2023-02-13T16:03:53;23.92;;;11.50;;
75542;SDS011;64129;53.508;10.476;2023-02-13T16:06:24;22.45;;;12.18;;
75542;SDS011;64129;53.508;10.476;2023-02-13T16:08:53;21.27;;;11.55;;
75542;SDS011;64129;53.508;10.476;2023-02-13T16:11:28;18.65;;;8.95;;
75542;SDS011;64129;53.508;10.476;2023-02-13T16:13:57;25.05;;;11.68;;
75542;SDS011;64129;53.508;10.476;2023-02-13T16:16:28;21.75;;;11.27;;
75542;SDS011;64129;53.508;10.476;2023-02-13T16:18:58;22.83;;;12.23;;
75542;SDS011;64129;53.508;10.476;2023-02-13T16:21:25;22.65;;;12.00;;
75542;SDS011;64129;53.508;10.476;2023-02-13T16:23:57;23.23;;;12.27;;
75542;SDS011;64129;53.508;10.476;2023-02-13T16:26:28;22.13;;;11.43;;
75542;SDS011;64129;53.508;10.476;2023-02-13T16:28:56;22.33;;;12.45;;
75542;SDS011;64129;53.508;10.476;2023-02-13T16:31:23;24.50;;;12.65;;
75542;SDS011;64129;53.508;10.476;2023-02-13T16:33:49;27.98;;;13.48;;
75542;SDS011;64129;53.508;10.476;2023-02-13T16:36:18;26.65;;;14.98;;
75542;SDS011;64129;53.508;10.476;2023-02-13T16:38:52;25.55;;;12.00;;
75542;SDS011;64129;53.508;10.476;2023-02-13T16:43:49;27.80;;;13.38;;
75542;SDS011;64129;53.508;10.476;2023-02-13T16:46:42;25.17;;;13.32;;
75542;SDS011;64129;53.508;10.476;2023-02-13T16:49:15;26.48;;;14.35;;
75542;SDS011;64129;53.508;10.476;2023-02-13T16:51:49;26.88;;;13.88;;
75542;SDS011;64129;53.508;10.476;2023-02-13T16:54:50;28.88;;;13.68;;
75542;SDS011;64129;53.508;10.476;2023-02-13T16:57:26;27.33;;;14.45;;
75542;SDS011;64129;53.508;10.476;2023-02-13T17:02:49;28.40;;;14.10;;
75542;SDS011;64129;53.508;10.476;2023-02-13T17:05:23;31.45;;;14.65;;